sensor_id;sensor_type;location;lat;lon;timestamp;P1;durP1;ratioP1;P2;durP2;ratioP2
34541;SDS011;20784;51.332;12.410;2023-01-19T01:09:43;19.33;;;8.02;;
34541;SDS011;20784;51.332;12.410;2023-01-19T01:12:51;17.25;;;7.78;;
34541;SDS011;20784;51.332;12.410;2023-01-19T02:31:18;10.95;;;5.85;;
34541;SDS011;20784;51.332;12.410;2023-01-19T02:37:29;15.75;;;6.28;;
34541;SDS011;20784;51.332;12.410;2023-01-19T02:41:00;18.65;;;6.65;;
34541;SDS011;20784;51.332;12.410;2023-01-19T04:16:18;11.30;;;4.93;;
34541;SDS011;20784;51.332;12.410;2023-01-19T04:37:12;10.32;;;3.90;;
34541;SDS011;20784;51.332;12.410;2023-01-19T04:39:53;11.55;;;5.28;;
34541;SDS011;20784;51.332;12.410;2023-01-19T04:42:29;11.63;;;4.55;;
34541;SDS011;20784;51.332;12.410;2023-01-19T04:45:15;10.52;;;5.82;;
34541;SDS011;20784;51.332;12.410;2023-01-19T04:47:58;10.60;;;5.30;;
34541;SDS011;20784;51.332;12.410;2023-01-19T04:50:31;9.95;;;5.78;;
34541;SDS011;20784;51.332;12.410;2023-01-19T04:53:21;14.38;;;6.32;;
34541;SDS011;20784;51.332;12.410;2023-01-19T04:55:55;12.18;;;6.32;;
34541;SDS011;20784;51.332;12.410;2023-01-19T04:58:32;12.43;;;6.55;;
34541;SDS011;20784;51.332;12.410;2023-01-19T05:00:58;9.48;;;5.80;;
34541;SDS011;20784;51.332;12.410;2023-01-19T05:03:33;11.68;;;5.70;;
34541;SDS011;20784;51.332;12.410;2023-01-19T05:06:05;11.50;;;6.82;;
34541;SDS011;20784;51.332;12.410;2023-01-19T05:08:33;13.68;;;7.50;;
34541;SDS011;20784;51.332;12.410;2023-01-19T05:11:07;10.55;;;6.30;;
34541;SDS011;20784;51.332;12.410;2023-01-19T05:16:35;15.18;;;7.13;;
34541;SDS011;20784;51.332;12.410;2023-01-19T05:19:27;9.55;;;6.53;;
34541;SDS011;20784;51.332;12.410;2023-01-19T05:22:03;12.70;;;6.47;;
34541;SDS011;20784;51.332;12.410;2023-01-19T05:24:29;12.70;;;6.72;;
34541;SDS011;20784;51.332;12.410;2023-01-19T05:26:55;17.80;;;6.95;;
34541;SDS011;20784;51.332;12.410;2023-01-19T05:29:20;10.68;;;6.78;;
34541;SDS011;20784;51.332;12.410;2023-01-19T05:31:46;13.38;;;7.22;;
34541;SDS011;20784;51.332;12.410;2023-01-19T05:34:18;11.63;;;6.70;;
34541;SDS011;20784;51.332;12.410;2023-01-19T05:39:09;12.85;;;7.18;;
34541;SDS011;20784;51.332;12.410;2023-01-19T05:41:37;18.40;;;7.63;;
34541;SDS011;20784;51.332;12.410;2023-01-19T05:44:03;12.65;;;7.90;;
34541;SDS011;20784;51.332;12.410;2023-01-19T05:46:29;14.32;;;8.38;;
34541;SDS011;20784;51.332;12.410;2023-01-19T05:48:55;16.30;;;7.85;;
34541;SDS011;20784;51.332;12.410;2023-01-19T05:51:20;17.63;;;8.50;;
34541;SDS011;20784;51.332;12.410;2023-01-19T05:53:46;12.45;;;6.45;;
34541;SDS011;20784;51.332;12.410;2023-01-19T05:56:13;17.88;;;8.40;;
34541;SDS011;20784;51.332;12.410;2023-01-19T05:58:38;14.15;;;8.38;;
34541;SDS011;20784;51.332;12.410;2023-01-19T06:01:05;14.10;;;8.57;;
34541;SDS011;20784;51.332;12.410;2023-01-19T06:03:34;14.15;;;7.90;;
34541;SDS011;20784;51.332;12.410;2023-01-19T06:06:04;17.30;;;9.25;;
34541;SDS011;20784;51.332;12.410;2023-01-19T06:08:32;15.40;;;8.05;;
34541;SDS011;20784;51.332;12.410;2023-01-19T06:16:11;16.63;;;9.38;;
34541;SDS011;20784;51.332;12.410;2023-01-19T06:18:49;16.73;;;9.02;;
34541;SDS011;20784;51.332;12.410;2023-01-19T06:21:20;14.38;;;7.97;;
34541;SDS011;20784;51.332;12.410;2023-01-19T06:23:46;16.55;;;9.52;;
34541;SDS011;20784;51.332;12.410;2023-01-19T06:26:17;17.20;;;10.10;;
34541;SDS011;20784;51.332;12.410;2023-01-19T06:29:19;17.95;;;10.75;;
34541;SDS011;20784;51.332;12.410;2023-01-19T06:32:01;23.15;;;13.05;;
34541;SDS011;20784;51.332;12.410;2023-01-19T06:34:37;27.60;;;13.65;;
34541;SDS011;20784;51.332;12.410;2023-01-19T06:37:07;20.58;;;11.98;;
34541;SDS011;20784;51.332;12.410;2023-01-19T06:39:41;24.80;;;12.95;;
34541;SDS011;20784;51.332;12.410;2023-01-19T06:42:12;15.77;;;8.93;;
34541;SDS011;20784;51.332;12.410;2023-01-19T06:44:40;18.63;;;9.80;;
34541;SDS011;20784;51.332;12.410;2023-01-19T06:47:12;16.38;;;10.30;;
34541;SDS011;20784;51.332;12.410;2023-01-19T06:49:40;18.67;;;10.25;;
34541;SDS011;20784;51.332;12.410;2023-01-19T06:52:07;18.33;;;11.02;;
34541;SDS011;20784;51.332;12.410;2023-01-19T06:54:40;20.45;;;9.05;;
34541;SDS011;20784;51.332;12.410;2023-01-19T06:57:08;16.17;;;9.77;;
34541;SDS011;20784;51.332;12.410;2023-01-19T06:59:38;15.35;;;9.15;;
34541;SDS011;20784;51.332;12.410;2023-01-19T07:02:08;15.55;;;9.50;;
34541;SDS011;20784;51.332;12.410;2023-01-19T07:04:35;15.70;;;8.77;;
34541;SDS011;20784;51.332;12.410;2023-01-19T07:09:53;18.70;;;10.13;;
34541;SDS011;20784;51.332;12.410;2023-01-19T07:12:22;16.92;;;9.50;;
34541;SDS011;20784;51.332;12.410;2023-01-19T07:14:58;19.02;;;10.25;;
34541;SDS011;20784;51.332;12.410;2023-01-19T07:17:24;20.90;;;9.73;;
34541;SDS011;20784;51.332;12.410;2023-01-19T07:20:04;14.75;;;8.30;;
34541;SDS011;20784;51.332;12.410;2023-01-19T07:22:35;15.85;;;9.68;;
34541;SDS011;20784;51.332;12.410;2023-01-19T07:25:03;18.13;;;10.30;;
34541;SDS011;20784;51.332;12.410;2023-01-19T07:27:37;17.73;;;9.05;;
34541;SDS011;20784;51.332;12.410;2023-01-19T07:30:11;13.77;;;7.70;;
34541;SDS011;20784;51.332;12.410;2023-01-19T07:32:39;18.63;;;9.75;;
34541;SDS011;20784;51.332;12.410;2023-01-19T07:35:14;15.32;;;9.52;;
34541;SDS011;20784;51.332;12.410;2023-01-19T07:37:40;21.30;;;10.32;;
34541;SDS011;20784;51.332;12.410;2023-01-19T07:40:06;13.10;;;8.23;;
34541;SDS011;20784;51.332;12.410;2023-01-19T07:42:39;18.95;;;10.25;;
34541;SDS011;20784;51.332;12.410;2023-01-19T07:45:10;17.35;;;10.38;;
34541;SDS011;20784;51.332;12.410;2023-01-19T07:47:36;16.90;;;8.70;;
34541;SDS011;20784;51.332;12.410;2023-01-19T07:50:04;16.08;;;9.52;;
34541;SDS011;20784;51.332;12.410;2023-01-19T07:52:30;21.77;;;10.35;;
34541;SDS011;20784;51.332;12.410;2023-01-19T07:55:02;21.20;;;10.55;;
34541;SDS011;20784;51.332;12.410;2023-01-19T07:57:28;19.60;;;10.57;;
34541;SDS011;20784;51.332;12.410;2023-01-19T07:59:54;17.95;;;10.55;;
34541;SDS011;20784;51.332;12.410;2023-01-19T08:02:22;17.00;;;10.32;;
34541;SDS011;20784;51.332;12.410;2023-01-19T08:04:49;16.23;;;9.52;;
34541;SDS011;20784;51.332;12.410;2023-01-19T08:07:15;18.88;;;9.85;;
34541;SDS011;20784;51.332;12.410;2023-01-19T08:09:42;15.18;;;8.93;;
34541;SDS011;20784;51.332;12.410;2023-01-19T08:12:10;14.75;;;9.48;;
34541;SDS011;20784;51.332;12.410;2023-01-19T08:14:46;12.55;;;8.35;;
34541;SDS011;20784;51.332;12.410;2023-01-19T08:17:15;13.23;;;8.13;;
34541;SDS011;20784;51.332;12.410;2023-01-19T08:19:41;10.90;;;7.28;;
34541;SDS011;20784;51.332;12.410;2023-01-19T08:22:14;17.77;;;7.82;;
34541;SDS011;20784;51.332;12.410;2023-01-19T08:24:40;10.85;;;7.10;;
34541;SDS011;20784;51.332;12.410;2023-01-19T08:27:08;11.27;;;7.50;;
34541;SDS011;20784;51.332;12.410;2023-01-19T08:29:39;11.45;;;7.57;;
34541;SDS011;20784;51.332;12.410;2023-01-19T08:32:10;10.23;;;7.30;;
34541;SDS011;20784;51.332;12.410;2023-01-19T08:34:41;12.63;;;8.18;;
34541;SDS011;20784;51.332;12.410;2023-01-19T08:37:17;10.82;;;7.57;;
34541;SDS011;20784;51.332;12.410;2023-01-19T08:39:48;12.57;;;7.72;;
34541;SDS011;20784;51.332;12.410;2023-01-19T08:42:20;14.95;;;7.93;;
34541;SDS011;20784;51.332;12.410;2023-01-19T08:44:54;10.35;;;6.85;;
34541;SDS011;20784;51.332;12.410;2023-01-19T08:47:20;11.88;;;7.25;;
34541;SDS011;20784;51.332;12.410;2023-01-19T08:49:46;12.07;;;7.40;;
34541;SDS011;20784;51.332;12.410;2023-01-19T08:52:11;12.02;;;7.43;;
34541;SDS011;20784;51.332;12.410;2023-01-19T08:54:37;11.70;;;7.20;;
34541;SDS011;20784;51.332;12.410;2023-01-19T08:57:03;10.60;;;6.88;;
34541;SDS011;20784;51.332;12.410;2023-01-19T08:59:28;11.68;;;7.03;;
34541;SDS011;20784;51.332;12.410;2023-01-19T09:01:56;11.30;;;6.63;;
34541;SDS011;20784;51.332;12.410;2023-01-19T09:04:22;11.63;;;7.70;;
34541;SDS011;20784;51.332;12.410;2023-01-19T09:06:49;13.07;;;7.78;;
34541;SDS011;20784;51.332;12.410;2023-01-19T09:09:18;12.70;;;7.35;;
34541;SDS011;20784;51.332;12.410;2023-01-19T09:11:43;11.35;;;7.03;;
34541;SDS011;20784;51.332;12.410;2023-01-19T09:14:09;10.27;;;7.15;;
34541;SDS011;20784;51.332;12.410;2023-01-19T09:16:35;9.57;;;6.65;;
34541;SDS011;20784;51.332;12.410;2023-01-19T09:19:01;10.27;;;6.68;;
34541;SDS011;20784;51.332;12.410;2023-01-19T09:21:45;11.75;;;7.22;;
34541;SDS011;20784;51.332;12.410;2023-01-19T09:24:19;11.88;;;7.53;;
34541;SDS011;20784;51.332;12.410;2023-01-19T09:26:55;10.45;;;7.80;;
34541;SDS011;20784;51.332;12.410;2023-01-19T09:29:21;10.95;;;7.57;;
34541;SDS011;20784;51.332;12.410;2023-01-19T09:31:46;9.20;;;7.22;;
34541;SDS011;20784;51.332;12.410;2023-01-19T09:34:12;10.52;;;6.88;;
34541;SDS011;20784;51.332;12.410;2023-01-19T09:36:38;9.52;;;6.70;;
34541;SDS011;20784;51.332;12.410;2023-01-19T09:39:04;11.40;;;7.15;;
34541;SDS011;20784;51.332;12.410;2023-01-19T09:41:30;10.85;;;7.40;;
34541;SDS011;20784;51.332;12.410;2023-01-19T09:43:59;13.38;;;8.18;;
34541;SDS011;20784;51.332;12.410;2023-01-19T09:46:39;10.85;;;7.32;;
34541;SDS011;20784;51.332;12.410;2023-01-19T09:49:15;11.17;;;7.30;;
34541;SDS011;20784;51.332;12.410;2023-01-19T09:51:45;10.38;;;7.10;;
34541;SDS011;20784;51.332;12.410;2023-01-19T09:54:13;9.85;;;7.40;;
34541;SDS011;20784;51.332;12.410;2023-01-19T09:56:51;13.13;;;7.13;;
34541;SDS011;20784;51.332;12.410;2023-01-19T09:59:19;9.48;;;7.38;;
34541;SDS011;20784;51.332;12.410;2023-01-19T10:18:53;12.32;;;7.20;;
34541;SDS011;20784;51.332;12.410;2023-01-19T10:21:36;8.82;;;7.07;;
34541;SDS011;20784;51.332;12.410;2023-01-19T10:26:43;10.98;;;7.78;;
34541;SDS011;20784;51.332;12.410;2023-01-19T10:32:07;9.07;;;6.90;;
34541;SDS011;20784;51.332;12.410;2023-01-19T10:34:36;10.15;;;7.30;;
34541;SDS011;20784;51.332;12.410;2023-01-19T10:39:57;8.88;;;7.38;;
34541;SDS011;20784;51.332;12.410;2023-01-19T10:42:28;11.75;;;7.03;;
34541;SDS011;20784;51.332;12.410;2023-01-19T10:44:54;9.68;;;7.65;;
34541;SDS011;20784;51.332;12.410;2023-01-19T10:47:20;10.63;;;7.57;;
34541;SDS011;20784;51.332;12.410;2023-01-19T10:49:54;9.55;;;7.05;;
34541;SDS011;20784;51.332;12.410;2023-01-19T10:52:30;10.30;;;7.65;;
34541;SDS011;20784;51.332;12.410;2023-01-19T10:55:04;11.65;;;8.25;;
34541;SDS011;20784;51.332;12.410;2023-01-19T10:57:34;10.25;;;7.57;;
34541;SDS011;20784;51.332;12.410;2023-01-19T11:00:06;10.88;;;7.55;;
34541;SDS011;20784;51.332;12.410;2023-01-19T11:02:52;9.55;;;6.70;;
34541;SDS011;20784;51.332;12.410;2023-01-19T11:07:47;10.35;;;6.88;;
34541;SDS011;20784;51.332;12.410;2023-01-19T11:15:48;10.82;;;7.25;;
34541;SDS011;20784;51.332;12.410;2023-01-19T11:23:51;9.23;;;7.05;;
34541;SDS011;20784;51.332;12.410;2023-01-19T11:26:33;9.80;;;7.68;;
34541;SDS011;20784;51.332;12.410;2023-01-19T11:29:57;10.70;;;7.93;;
34541;SDS011;20784;51.332;12.410;2023-01-19T11:32:44;11.95;;;7.93;;
34541;SDS011;20784;51.332;12.410;2023-01-19T11:35:30;11.15;;;7.57;;
34541;SDS011;20784;51.332;12.410;2023-01-19T11:40:36;12.13;;;7.75;;
34541;SDS011;20784;51.332;12.410;2023-01-19T11:43:03;12.00;;;7.97;;
34541;SDS011;20784;51.332;12.410;2023-01-19T11:45:28;9.10;;;7.20;;
34541;SDS011;20784;51.332;12.410;2023-01-19T11:47:56;11.07;;;7.53;;
34541;SDS011;20784;51.332;12.410;2023-01-19T11:50:32;9.13;;;7.00;;
34541;SDS011;20784;51.332;12.410;2023-01-19T11:53:08;9.13;;;7.18;;
34541;SDS011;20784;51.332;12.410;2023-01-19T11:58:39;9.75;;;6.75;;
34541;SDS011;20784;51.332;12.410;2023-01-19T12:01:18;10.82;;;7.82;;
34541;SDS011;20784;51.332;12.410;2023-01-19T12:06:42;9.23;;;6.78;;
34541;SDS011;20784;51.332;12.410;2023-01-19T12:11:55;10.20;;;6.85;;
34541;SDS011;20784;51.332;12.410;2023-01-19T12:14:24;12.18;;;7.30;;
34541;SDS011;20784;51.332;12.410;2023-01-19T12:17:02;8.80;;;6.60;;
34541;SDS011;20784;51.332;12.410;2023-01-19T12:19:45;9.07;;;6.50;;
34541;SDS011;20784;51.332;12.410;2023-01-19T12:22:16;9.05;;;6.15;;
34541;SDS011;20784;51.332;12.410;2023-01-19T12:24:52;8.30;;;5.75;;
34541;SDS011;20784;51.332;12.410;2023-01-19T12:27:45;8.73;;;5.97;;
34541;SDS011;20784;51.332;12.410;2023-01-19T12:30:20;7.68;;;6.13;;
34541;SDS011;20784;51.332;12.410;2023-01-19T12:32:48;5.90;;;5.30;;
34541;SDS011;20784;51.332;12.410;2023-01-19T12:38:45;9.02;;;6.43;;
34541;SDS011;20784;51.332;12.410;2023-01-19T12:41:34;8.07;;;6.05;;
34541;SDS011;20784;51.332;12.410;2023-01-19T12:46:36;9.13;;;5.78;;
34541;SDS011;20784;51.332;12.410;2023-01-19T12:49:11;10.32;;;6.38;;
34541;SDS011;20784;51.332;12.410;2023-01-19T12:51:51;9.07;;;6.78;;
34541;SDS011;20784;51.332;12.410;2023-01-19T12:54:25;8.75;;;6.40;;
34541;SDS011;20784;51.332;12.410;2023-01-19T12:56:59;10.18;;;6.65;;
34541;SDS011;20784;51.332;12.410;2023-01-19T12:59:30;8.77;;;6.35;;
34541;SDS011;20784;51.332;12.410;2023-01-19T13:13:34;13.13;;;7.03;;
34541;SDS011;20784;51.332;12.410;2023-01-19T13:21:32;10.68;;;7.18;;
34541;SDS011;20784;51.332;12.410;2023-01-19T13:24:07;13.18;;;7.38;;
34541;SDS011;20784;51.332;12.410;2023-01-19T13:26:55;10.57;;;7.05;;
34541;SDS011;20784;51.332;12.410;2023-01-19T13:29:59;11.05;;;7.18;;
34541;SDS011;20784;51.332;12.410;2023-01-19T13:32:49;11.93;;;7.40;;
34541;SDS011;20784;51.332;12.410;2023-01-19T13:35:46;14.70;;;7.90;;
34541;SDS011;20784;51.332;12.410;2023-01-19T13:38:45;9.35;;;5.93;;
34541;SDS011;20784;51.332;12.410;2023-01-19T13:41:14;10.88;;;7.13;;
34541;SDS011;20784;51.332;12.410;2023-01-19T13:47:25;9.27;;;6.03;;
34541;SDS011;20784;51.332;12.410;2023-01-19T13:52:59;11.07;;;7.82;;
34541;SDS011;20784;51.332;12.410;2023-01-19T14:02:06;10.40;;;6.95;;
34541;SDS011;20784;51.332;12.410;2023-01-19T14:05:11;11.98;;;6.97;;
34541;SDS011;20784;51.332;12.410;2023-01-19T14:07:47;11.50;;;6.80;;
34541;SDS011;20784;51.332;12.410;2023-01-19T14:16:46;9.25;;;6.07;;
34541;SDS011;20784;51.332;12.410;2023-01-19T14:19:45;12.38;;;7.15;;
34541;SDS011;20784;51.332;12.410;2023-01-19T14:32:16;9.23;;;6.65;;
34541;SDS011;20784;51.332;12.410;2023-01-19T14:37:33;11.35;;;6.85;;
34541;SDS011;20784;51.332;12.410;2023-01-19T14:47:41;10.18;;;6.35;;
34541;SDS011;20784;51.332;12.410;2023-01-19T14:50:23;12.25;;;6.75;;
34541;SDS011;20784;51.332;12.410;2023-01-19T14:53:01;14.90;;;6.20;;
34541;SDS011;20784;51.332;12.410;2023-01-19T14:56:02;10.40;;;5.70;;
34541;SDS011;20784;51.332;12.410;2023-01-19T14:58:50;8.95;;;6.32;;
34541;SDS011;20784;51.332;12.410;2023-01-19T15:01:32;9.43;;;5.75;;
34541;SDS011;20784;51.332;12.410;2023-01-19T15:13:59;10.05;;;5.90;;
34541;SDS011;20784;51.332;12.410;2023-01-19T15:16:28;10.30;;;6.85;;
34541;SDS011;20784;51.332;12.410;2023-01-19T15:19:07;7.83;;;5.73;;
34541;SDS011;20784;51.332;12.410;2023-01-19T15:21:52;10.63;;;6.00;;
34541;SDS011;20784;51.332;12.410;2023-01-19T16:36:27;10.93;;;6.68;;
34541;SDS011;20784;51.332;12.410;2023-01-19T16:39:03;10.05;;;6.25;;
34541;SDS011;20784;51.332;12.410;2023-01-19T16:41:37;13.45;;;6.82;;
34541;SDS011;20784;51.332;12.410;2023-01-19T16:44:10;12.27;;;6.60;;
34541;SDS011;20784;51.332;12.410;2023-01-19T16:46:40;15.38;;;6.88;;
34541;SDS011;20784;51.332;12.410;2023-01-19T16:49:11;13.53;;;7.50;;
34541;SDS011;20784;51.332;12.410;2023-01-19T16:51:45;12.07;;;7.13;;
34541;SDS011;20784;51.332;12.410;2023-01-19T16:54:15;15.20;;;7.18;;
34541;SDS011;20784;51.332;12.410;2023-01-19T16:56:42;12.10;;;6.72;;
34541;SDS011;20784;51.332;12.410;2023-01-19T16:59:12;10.35;;;7.10;;
34541;SDS011;20784;51.332;12.410;2023-01-19T17:01:39;12.00;;;7.35;;
34541;SDS011;20784;51.332;12.410;2023-01-19T17:04:07;15.80;;;10.18;;
34541;SDS011;20784;51.332;12.410;2023-01-19T17:06:36;27.13;;;15.77;;
34541;SDS011;20784;51.332;12.410;2023-01-19T17:09:15;15.40;;;7.43;;
34541;SDS011;20784;51.332;12.410;2023-01-19T17:11:51;12.00;;;6.88;;
34541;SDS011;20784;51.332;12.410;2023-01-19T17:14:25;11.73;;;8.10;;
34541;SDS011;20784;51.332;12.410;2023-01-19T17:16:51;11.90;;;7.65;;
34541;SDS011;20784;51.332;12.410;2023-01-19T17:19:19;12.80;;;8.32;;
34541;SDS011;20784;51.332;12.410;2023-01-19T17:21:49;13.70;;;7.68;;
34541;SDS011;20784;51.332;12.410;2023-01-19T17:24:25;12.95;;;7.55;;
34541;SDS011;20784;51.332;12.410;2023-01-19T17:27:09;10.52;;;7.25;;
34541;SDS011;20784;51.332;12.410;2023-01-19T17:35:54;14.27;;;7.70;;
34541;SDS011;20784;51.332;12.410;2023-01-19T17:38:31;11.30;;;7.40;;
34541;SDS011;20784;51.332;12.410;2023-01-19T17:41:10;14.05;;;8.40;;
34541;SDS011;20784;51.332;12.410;2023-01-19T17:46:20;10.50;;;7.47;;
34541;SDS011;20784;51.332;12.410;2023-01-19T17:49:00;13.70;;;7.35;;
34541;SDS011;20784;51.332;12.410;2023-01-19T17:51:30;10.10;;;7.72;;
34541;SDS011;20784;51.332;12.410;2023-01-19T17:53:59;11.05;;;7.68;;
34541;SDS011;20784;51.332;12.410;2023-01-19T17:56:30;11.48;;;7.47;;
34541;SDS011;20784;51.332;12.410;2023-01-19T17:59:00;12.48;;;7.55;;
34541;SDS011;20784;51.332;12.410;2023-01-19T18:01:30;11.43;;;7.70;;
34541;SDS011;20784;51.332;12.410;2023-01-19T18:03:57;14.93;;;8.18;;
34541;SDS011;20784;51.332;12.410;2023-01-19T18:06:26;12.48;;;8.02;;
34541;SDS011;20784;51.332;12.410;2023-01-19T18:09:21;12.90;;;8.65;;
34541;SDS011;20784;51.332;12.410;2023-01-19T18:11:47;11.10;;;7.72;;
34541;SDS011;20784;51.332;12.410;2023-01-19T18:14:30;12.95;;;7.90;;
34541;SDS011;20784;51.332;12.410;2023-01-19T18:17:01;11.05;;;7.10;;
34541;SDS011;20784;51.332;12.410;2023-01-19T18:19:27;11.18;;;7.43;;
34541;SDS011;20784;51.332;12.410;2023-01-19T18:22:02;13.20;;;7.85;;
34541;SDS011;20784;51.332;12.410;2023-01-19T18:24:28;11.68;;;7.80;;
34541;SDS011;20784;51.332;12.410;2023-01-19T18:27:03;12.93;;;7.50;;
34541;SDS011;20784;51.332;12.410;2023-01-19T18:30:20;13.43;;;7.60;;
34541;SDS011;20784;51.332;12.410;2023-01-19T18:32:46;14.15;;;7.78;;
34541;SDS011;20784;51.332;12.410;2023-01-19T18:38:33;12.73;;;7.93;;
34541;SDS011;20784;51.332;12.410;2023-01-19T18:41:14;11.57;;;7.88;;
34541;SDS011;20784;51.332;12.410;2023-01-19T18:43:43;13.18;;;8.48;;
34541;SDS011;20784;51.332;12.410;2023-01-19T18:46:24;13.60;;;8.52;;
34541;SDS011;20784;51.332;12.410;2023-01-19T18:48:51;16.58;;;7.93;;
34541;SDS011;20784;51.332;12.410;2023-01-19T18:53:48;11.52;;;7.90;;
34541;SDS011;20784;51.332;12.410;2023-01-19T18:56:14;11.50;;;8.63;;
34541;SDS011;20784;51.332;12.410;2023-01-19T18:58:40;12.55;;;8.52;;
34541;SDS011;20784;51.332;12.410;2023-01-19T19:01:40;10.23;;;7.55;;
34541;SDS011;20784;51.332;12.410;2023-01-19T19:03:59;13.20;;;9.35;;
34541;SDS011;20784;51.332;12.410;2023-01-19T19:06:27;15.35;;;9.85;;
34541;SDS011;20784;51.332;12.410;2023-01-19T19:08:55;12.32;;;8.70;;
34541;SDS011;20784;51.332;12.410;2023-01-19T19:11:23;13.27;;;8.73;;
34541;SDS011;20784;51.332;12.410;2023-01-19T19:17:04;11.73;;;8.68;;
34541;SDS011;20784;51.332;12.410;2023-01-19T19:19:56;10.85;;;8.43;;
34541;SDS011;20784;51.332;12.410;2023-01-19T19:22:24;16.58;;;9.57;;
34541;SDS011;20784;51.332;12.410;2023-01-19T19:24:53;13.57;;;9.63;;
34541;SDS011;20784;51.332;12.410;2023-01-19T19:27:42;12.25;;;8.75;;
34541;SDS011;20784;51.332;12.410;2023-01-19T19:30:11;13.70;;;9.95;;
34541;SDS011;20784;51.332;12.410;2023-01-19T19:32:50;12.82;;;8.60;;
34541;SDS011;20784;51.332;12.410;2023-01-19T19:35:28;12.80;;;9.82;;
34541;SDS011;20784;51.332;12.410;2023-01-19T19:38:23;14.15;;;9.50;;
34541;SDS011;20784;51.332;12.410;2023-01-19T19:41:10;13.55;;;9.75;;
34541;SDS011;20784;51.332;12.410;2023-01-19T19:43:53;13.85;;;10.82;;
34541;SDS011;20784;51.332;12.410;2023-01-19T19:46:25;17.80;;;9.52;;
34541;SDS011;20784;51.332;12.410;2023-01-19T19:49:02;13.63;;;10.27;;
34541;SDS011;20784;51.332;12.410;2023-01-19T19:51:38;14.43;;;10.73;;
34541;SDS011;20784;51.332;12.410;2023-01-19T19:56:46;14.90;;;10.60;;
34541;SDS011;20784;51.332;12.410;2023-01-19T19:59:26;15.48;;;11.93;;
34541;SDS011;20784;51.332;12.410;2023-01-19T20:02:15;16.30;;;11.90;;
34541;SDS011;20784;51.332;12.410;2023-01-19T20:05:29;15.13;;;11.05;;
34541;SDS011;20784;51.332;12.410;2023-01-19T20:11:53;16.45;;;12.15;;
34541;SDS011;20784;51.332;12.410;2023-01-19T20:21:17;15.75;;;11.63;;
34541;SDS011;20784;51.332;12.410;2023-01-19T20:36:05;18.55;;;12.57;;
34541;SDS011;20784;51.332;12.410;2023-01-19T20:38:56;13.48;;;10.57;;
34541;SDS011;20784;51.332;12.410;2023-01-19T20:41:40;15.90;;;11.65;;
34541;SDS011;20784;51.332;12.410;2023-01-19T20:44:38;16.25;;;11.45;;
34541;SDS011;20784;51.332;12.410;2023-01-19T20:48:07;16.85;;;12.15;;
34541;SDS011;20784;51.332;12.410;2023-01-19T20:50:33;17.40;;;11.50;;
34541;SDS011;20784;51.332;12.410;2023-01-19T20:53:01;19.98;;;11.95;;
34541;SDS011;20784;51.332;12.410;2023-01-19T20:55:35;17.48;;;11.15;;
34541;SDS011;20784;51.332;12.410;2023-01-19T20:58:03;15.15;;;11.52;;
34541;SDS011;20784;51.332;12.410;2023-01-19T21:00:31;24.42;;;15.45;;
34541;SDS011;20784;51.332;12.410;2023-01-19T21:03:01;27.15;;;16.92;;
34541;SDS011;20784;51.332;12.410;2023-01-19T21:05:29;25.63;;;16.08;;
34541;SDS011;20784;51.332;12.410;2023-01-19T21:08:21;15.10;;;10.27;;
34541;SDS011;20784;51.332;12.410;2023-01-19T21:10:47;21.33;;;12.13;;
34541;SDS011;20784;51.332;12.410;2023-01-19T21:13:16;20.67;;;13.32;;
34541;SDS011;20784;51.332;12.410;2023-01-19T21:15:52;18.90;;;13.23;;
34541;SDS011;20784;51.332;12.410;2023-01-19T21:18:26;16.33;;;11.90;;
34541;SDS011;20784;51.332;12.410;2023-01-19T21:21:00;21.27;;;13.40;;
34541;SDS011;20784;51.332;12.410;2023-01-19T21:23:31;17.45;;;10.80;;
34541;SDS011;20784;51.332;12.410;2023-01-19T21:26:00;17.75;;;10.80;;
34541;SDS011;20784;51.332;12.410;2023-01-19T21:28:36;19.85;;;11.45;;
34541;SDS011;20784;51.332;12.410;2023-01-19T21:31:10;17.10;;;11.88;;
34541;SDS011;20784;51.332;12.410;2023-01-19T21:33:38;15.73;;;11.27;;
34541;SDS011;20784;51.332;12.410;2023-01-19T21:36:08;17.05;;;11.50;;
34541;SDS011;20784;51.332;12.410;2023-01-19T21:38:35;16.43;;;11.50;;
34541;SDS011;20784;51.332;12.410;2023-01-19T21:41:08;16.55;;;11.82;;
34541;SDS011;20784;51.332;12.410;2023-01-19T21:43:40;16.08;;;11.18;;
34541;SDS011;20784;51.332;12.410;2023-01-19T21:46:17;18.77;;;11.45;;
34541;SDS011;20784;51.332;12.410;2023-01-19T21:49:07;16.45;;;11.43;;
34541;SDS011;20784;51.332;12.410;2023-01-19T21:51:49;14.30;;;10.13;;
34541;SDS011;20784;51.332;12.410;2023-01-19T21:54:35;20.63;;;11.80;;
34541;SDS011;20784;51.332;12.410;2023-01-19T21:57:13;16.23;;;11.47;;
34541;SDS011;20784;51.332;12.410;2023-01-19T21:59:56;15.27;;;10.88;;
34541;SDS011;20784;51.332;12.410;2023-01-19T22:02:22;16.77;;;10.70;;
34541;SDS011;20784;51.332;12.410;2023-01-19T22:08:28;17.92;;;11.55;;
34541;SDS011;20784;51.332;12.410;2023-01-19T22:18:23;15.65;;;10.63;;
34541;SDS011;20784;51.332;12.410;2023-01-19T22:21:33;18.63;;;11.38;;
34541;SDS011;20784;51.332;12.410;2023-01-19T22:24:12;17.83;;;11.43;;
34541;SDS011;20784;51.332;12.410;2023-01-19T22:27:02;15.52;;;11.10;;
34541;SDS011;20784;51.332;12.410;2023-01-19T22:30:15;16.17;;;10.57;;
34541;SDS011;20784;51.332;12.410;2023-01-19T22:32:52;16.30;;;11.38;;
34541;SDS011;20784;51.332;12.410;2023-01-19T22:35:21;14.02;;;9.60;;
34541;SDS011;20784;51.332;12.410;2023-01-19T22:37:52;20.98;;;12.15;;
34541;SDS011;20784;51.332;12.410;2023-01-19T22:40:18;13.15;;;9.77;;
34541;SDS011;20784;51.332;12.410;2023-01-19T22:42:47;16.63;;;10.82;;
34541;SDS011;20784;51.332;12.410;2023-01-19T22:45:13;17.60;;;11.15;;
34541;SDS011;20784;51.332;12.410;2023-01-19T22:47:39;14.30;;;10.63;;
34541;SDS011;20784;51.332;12.410;2023-01-19T22:50:05;20.80;;;11.57;;
34541;SDS011;20784;51.332;12.410;2023-01-19T22:52:32;17.15;;;10.73;;
34541;SDS011;20784;51.332;12.410;2023-01-19T22:54:58;17.92;;;10.48;;
34541;SDS011;20784;51.332;12.410;2023-01-19T22:57:24;19.95;;;10.80;;
34541;SDS011;20784;51.332;12.410;2023-01-19T22:59:49;19.05;;;11.13;;
34541;SDS011;20784;51.332;12.410;2023-01-19T23:02:24;17.67;;;10.80;;
34541;SDS011;20784;51.332;12.410;2023-01-19T23:04:50;17.48;;;11.23;;
34541;SDS011;20784;51.332;12.410;2023-01-19T23:07:16;21.20;;;11.13;;
34541;SDS011;20784;51.332;12.410;2023-01-19T23:09:41;18.92;;;11.48;;
34541;SDS011;20784;51.332;12.410;2023-01-19T23:12:12;17.70;;;11.57;;
34541;SDS011;20784;51.332;12.410;2023-01-19T23:14:40;22.75;;;11.50;;
34541;SDS011;20784;51.332;12.410;2023-01-19T23:17:09;15.75;;;11.07;;
34541;SDS011;20784;51.332;12.410;2023-01-19T23:19:35;19.30;;;11.93;;
34541;SDS011;20784;51.332;12.410;2023-01-19T23:22:00;17.50;;;10.82;;
34541;SDS011;20784;51.332;12.410;2023-01-19T23:27:08;17.63;;;12.32;;
34541;SDS011;20784;51.332;12.410;2023-01-19T23:29:39;19.05;;;12.40;;
34541;SDS011;20784;51.332;12.410;2023-01-19T23:32:08;19.90;;;12.95;;
34541;SDS011;20784;51.332;12.410;2023-01-19T23:34:39;20.75;;;12.50;;
34541;SDS011;20784;51.332;12.410;2023-01-19T23:37:05;19.10;;;13.15;;
34541;SDS011;20784;51.332;12.410;2023-01-19T23:39:38;15.88;;;11.23;;
34541;SDS011;20784;51.332;12.410;2023-01-19T23:42:11;19.02;;;12.15;;